sensor_id;sensor_type;location;lat;lon;timestamp;P1;durP1;ratioP1;P2;durP2;ratioP2
41426;SDS011;27171;51.812;19.514;2022-11-20T00:01:36;38.75;;;23.75;;
41426;SDS011;27171;51.812;19.514;2022-11-20T00:04:37;40.78;;;24.35;;
41426;SDS011;27171;51.812;19.514;2022-11-20T00:07:38;43.60;;;25.48;;
41426;SDS011;27171;51.812;19.514;2022-11-20T00:10:39;39.10;;;25.17;;
41426;SDS011;27171;51.812;19.514;2022-11-20T00:13:41;38.55;;;23.65;;
41426;SDS011;27171;51.812;19.514;2022-11-20T00:16:43;42.10;;;24.73;;
41426;SDS011;27171;51.812;19.514;2022-11-20T00:19:44;43.85;;;25.65;;
41426;SDS011;27171;51.812;19.514;2022-11-20T00:22:45;43.67;;;25.13;;
41426;SDS011;27171;51.812;19.514;2022-11-20T00:25:47;38.15;;;23.63;;
41426;SDS011;27171;51.812;19.514;2022-11-20T00:28:59;44.78;;;25.48;;
41426;SDS011;27171;51.812;19.514;2022-11-20T00:32:01;42.85;;;25.88;;
41426;SDS011;27171;51.812;19.514;2022-11-20T00:35:02;46.47;;;26.30;;
41426;SDS011;27171;51.812;19.514;2022-11-20T00:38:04;47.40;;;27.58;;
41426;SDS011;27171;51.812;19.514;2022-11-20T00:41:06;50.13;;;29.10;;
41426;SDS011;27171;51.812;19.514;2022-11-20T00:44:08;45.97;;;28.00;;
41426;SDS011;27171;51.812;19.514;2022-11-20T00:47:10;48.38;;;30.30;;
41426;SDS011;27171;51.812;19.514;2022-11-20T00:50:11;47.13;;;30.02;;
41426;SDS011;27171;51.812;19.514;2022-11-20T00:53:12;48.03;;;28.33;;
41426;SDS011;27171;51.812;19.514;2022-11-20T00:56:14;45.15;;;26.50;;
41426;SDS011;27171;51.812;19.514;2022-11-20T00:59:17;50.60;;;29.67;;
41426;SDS011;27171;51.812;19.514;2022-11-20T01:02:18;47.70;;;29.42;;
41426;SDS011;27171;51.812;19.514;2022-11-20T01:05:19;48.60;;;29.60;;
41426;SDS011;27171;51.812;19.514;2022-11-20T01:08:20;44.35;;;27.63;;
41426;SDS011;27171;51.812;19.514;2022-11-20T01:11:23;52.85;;;29.95;;
41426;SDS011;27171;51.812;19.514;2022-11-20T01:14:28;52.13;;;30.73;;
41426;SDS011;27171;51.812;19.514;2022-11-20T01:17:30;47.75;;;28.83;;
41426;SDS011;27171;51.812;19.514;2022-11-20T01:20:35;50.28;;;27.85;;
41426;SDS011;27171;51.812;19.514;2022-11-20T01:23:38;51.78;;;30.80;;
41426;SDS011;27171;51.812;19.514;2022-11-20T01:26:42;48.60;;;28.67;;
41426;SDS011;27171;51.812;19.514;2022-11-20T01:29:44;49.17;;;29.48;;
41426;SDS011;27171;51.812;19.514;2022-11-20T01:32:45;49.95;;;29.60;;
41426;SDS011;27171;51.812;19.514;2022-11-20T01:35:46;46.42;;;29.00;;
41426;SDS011;27171;51.812;19.514;2022-11-20T01:38:51;48.80;;;28.45;;
41426;SDS011;27171;51.812;19.514;2022-11-20T01:41:53;48.42;;;27.75;;
41426;SDS011;27171;51.812;19.514;2022-11-20T01:44:57;46.30;;;29.00;;
41426;SDS011;27171;51.812;19.514;2022-11-20T01:48:00;46.95;;;28.08;;
41426;SDS011;27171;51.812;19.514;2022-11-20T01:51:02;48.13;;;28.48;;
41426;SDS011;27171;51.812;19.514;2022-11-20T01:54:05;47.53;;;27.67;;
41426;SDS011;27171;51.812;19.514;2022-11-20T01:57:11;46.90;;;27.80;;
41426;SDS011;27171;51.812;19.514;2022-11-20T02:00:14;48.22;;;28.67;;
41426;SDS011;27171;51.812;19.514;2022-11-20T02:03:17;50.03;;;28.02;;
41426;SDS011;27171;51.812;19.514;2022-11-20T02:06:23;50.85;;;28.17;;
41426;SDS011;27171;51.812;19.514;2022-11-20T02:09:27;46.65;;;29.90;;
41426;SDS011;27171;51.812;19.514;2022-11-20T02:12:29;49.00;;;28.77;;
41426;SDS011;27171;51.812;19.514;2022-11-20T02:15:31;47.60;;;28.50;;
41426;SDS011;27171;51.812;19.514;2022-11-20T02:18:33;51.10;;;29.50;;
41426;SDS011;27171;51.812;19.514;2022-11-20T02:21:37;53.22;;;31.67;;
41426;SDS011;27171;51.812;19.514;2022-11-20T02:24:54;46.58;;;27.65;;
41426;SDS011;27171;51.812;19.514;2022-11-20T02:27:55;50.42;;;29.15;;
41426;SDS011;27171;51.812;19.514;2022-11-20T02:30:57;51.97;;;29.65;;
41426;SDS011;27171;51.812;19.514;2022-11-20T02:33:58;49.22;;;28.92;;
41426;SDS011;27171;51.812;19.514;2022-11-20T02:36:59;47.03;;;29.98;;
41426;SDS011;27171;51.812;19.514;2022-11-20T02:40:01;47.70;;;27.55;;
41426;SDS011;27171;51.812;19.514;2022-11-20T02:43:02;45.33;;;28.02;;
41426;SDS011;27171;51.812;19.514;2022-11-20T02:46:06;51.28;;;29.92;;
41426;SDS011;27171;51.812;19.514;2022-11-20T02:49:08;46.53;;;28.63;;
41426;SDS011;27171;51.812;19.514;2022-11-20T02:52:09;44.95;;;27.15;;
41426;SDS011;27171;51.812;19.514;2022-11-20T02:55:10;44.10;;;26.95;;
41426;SDS011;27171;51.812;19.514;2022-11-20T02:58:12;43.53;;;28.48;;
41426;SDS011;27171;51.812;19.514;2022-11-20T03:01:13;45.65;;;28.05;;
41426;SDS011;27171;51.812;19.514;2022-11-20T03:04:15;44.15;;;27.67;;
41426;SDS011;27171;51.812;19.514;2022-11-20T03:07:16;49.08;;;29.33;;
41426;SDS011;27171;51.812;19.514;2022-11-20T03:10:17;41.75;;;26.45;;
41426;SDS011;27171;51.812;19.514;2022-11-20T03:13:18;43.08;;;26.75;;
41426;SDS011;27171;51.812;19.514;2022-11-20T03:16:20;45.35;;;26.95;;
41426;SDS011;27171;51.812;19.514;2022-11-20T03:19:22;39.92;;;25.48;;
41426;SDS011;27171;51.812;19.514;2022-11-20T03:22:23;40.15;;;25.77;;
41426;SDS011;27171;51.812;19.514;2022-11-20T03:25:24;42.63;;;25.60;;
41426;SDS011;27171;51.812;19.514;2022-11-20T03:28:26;43.72;;;26.77;;
41426;SDS011;27171;51.812;19.514;2022-11-20T03:31:31;44.58;;;26.45;;
41426;SDS011;27171;51.812;19.514;2022-11-20T03:34:34;42.80;;;25.05;;
41426;SDS011;27171;51.812;19.514;2022-11-20T03:37:35;46.58;;;27.08;;
41426;SDS011;27171;51.812;19.514;2022-11-20T03:40:36;45.42;;;25.77;;
41426;SDS011;27171;51.812;19.514;2022-11-20T03:43:37;41.88;;;25.08;;
41426;SDS011;27171;51.812;19.514;2022-11-20T03:46:39;41.42;;;24.88;;
41426;SDS011;27171;51.812;19.514;2022-11-20T03:49:40;39.70;;;25.50;;
41426;SDS011;27171;51.812;19.514;2022-11-20T03:52:41;43.08;;;26.88;;
41426;SDS011;27171;51.812;19.514;2022-11-20T03:55:43;45.83;;;27.17;;
41426;SDS011;27171;51.812;19.514;2022-11-20T03:58:44;50.13;;;28.63;;
41426;SDS011;27171;51.812;19.514;2022-11-20T04:01:45;47.17;;;26.88;;
41426;SDS011;27171;51.812;19.514;2022-11-20T04:04:47;47.65;;;27.80;;
41426;SDS011;27171;51.812;19.514;2022-11-20T04:07:48;44.78;;;27.55;;
41426;SDS011;27171;51.812;19.514;2022-11-20T04:10:49;40.22;;;25.85;;
41426;SDS011;27171;51.812;19.514;2022-11-20T04:13:51;48.83;;;28.42;;
41426;SDS011;27171;51.812;19.514;2022-11-20T04:16:54;46.67;;;29.13;;
41426;SDS011;27171;51.812;19.514;2022-11-20T04:19:55;49.10;;;28.92;;
41426;SDS011;27171;51.812;19.514;2022-11-20T04:22:56;48.47;;;30.15;;
41426;SDS011;27171;51.812;19.514;2022-11-20T04:26:01;50.45;;;29.23;;
41426;SDS011;27171;51.812;19.514;2022-11-20T04:29:10;52.03;;;31.58;;
41426;SDS011;27171;51.812;19.514;2022-11-20T04:32:12;48.83;;;30.02;;
41426;SDS011;27171;51.812;19.514;2022-11-20T04:35:13;52.08;;;31.33;;
41426;SDS011;27171;51.812;19.514;2022-11-20T04:38:14;48.45;;;28.88;;
41426;SDS011;27171;51.812;19.514;2022-11-20T04:41:17;49.15;;;28.95;;
41426;SDS011;27171;51.812;19.514;2022-11-20T04:44:19;49.55;;;28.10;;
41426;SDS011;27171;51.812;19.514;2022-11-20T04:47:21;47.67;;;28.88;;
41426;SDS011;27171;51.812;19.514;2022-11-20T04:50:22;50.17;;;27.92;;
41426;SDS011;27171;51.812;19.514;2022-11-20T04:53:23;52.60;;;28.73;;
41426;SDS011;27171;51.812;19.514;2022-11-20T04:56:25;50.45;;;30.17;;
41426;SDS011;27171;51.812;19.514;2022-11-20T04:59:26;54.97;;;32.20;;
41426;SDS011;27171;51.812;19.514;2022-11-20T05:02:27;50.85;;;29.98;;
41426;SDS011;27171;51.812;19.514;2022-11-20T05:05:28;52.00;;;29.75;;
41426;SDS011;27171;51.812;19.514;2022-11-20T05:08:29;51.00;;;30.30;;
41426;SDS011;27171;51.812;19.514;2022-11-20T05:11:31;52.25;;;30.25;;
41426;SDS011;27171;51.812;19.514;2022-11-20T05:14:33;55.55;;;30.73;;
41426;SDS011;27171;51.812;19.514;2022-11-20T05:17:34;54.88;;;30.80;;
41426;SDS011;27171;51.812;19.514;2022-11-20T05:20:35;59.33;;;32.15;;
41426;SDS011;27171;51.812;19.514;2022-11-20T05:23:37;56.17;;;31.60;;
41426;SDS011;27171;51.812;19.514;2022-11-20T05:26:38;52.45;;;29.85;;
41426;SDS011;27171;51.812;19.514;2022-11-20T05:29:40;55.00;;;30.75;;
41426;SDS011;27171;51.812;19.514;2022-11-20T05:32:41;54.65;;;31.50;;
41426;SDS011;27171;51.812;19.514;2022-11-20T05:35:42;56.58;;;31.02;;
41426;SDS011;27171;51.812;19.514;2022-11-20T05:38:44;59.03;;;31.60;;
41426;SDS011;27171;51.812;19.514;2022-11-20T05:41:45;53.03;;;30.10;;
41426;SDS011;27171;51.812;19.514;2022-11-20T05:44:46;56.95;;;31.83;;
41426;SDS011;27171;51.812;19.514;2022-11-20T05:47:47;53.63;;;30.52;;
41426;SDS011;27171;51.812;19.514;2022-11-20T05:50:49;55.35;;;30.45;;
41426;SDS011;27171;51.812;19.514;2022-11-20T05:53:50;62.85;;;30.73;;
41426;SDS011;27171;51.812;19.514;2022-11-20T05:56:51;52.33;;;29.50;;
41426;SDS011;27171;51.812;19.514;2022-11-20T05:59:52;50.60;;;28.83;;
41426;SDS011;27171;51.812;19.514;2022-11-20T06:02:53;53.20;;;30.80;;
41426;SDS011;27171;51.812;19.514;2022-11-20T06:05:55;54.15;;;30.05;;
41426;SDS011;27171;51.812;19.514;2022-11-20T06:08:56;54.05;;;29.48;;
41426;SDS011;27171;51.812;19.514;2022-11-20T06:11:57;56.20;;;30.95;;
41426;SDS011;27171;51.812;19.514;2022-11-20T06:14:58;56.30;;;31.95;;
41426;SDS011;27171;51.812;19.514;2022-11-20T06:18:00;51.25;;;28.10;;
41426;SDS011;27171;51.812;19.514;2022-11-20T06:24:10;58.78;;;30.95;;
41426;SDS011;27171;51.812;19.514;2022-11-20T06:27:11;54.67;;;30.70;;
41426;SDS011;27171;51.812;19.514;2022-11-20T06:30:13;55.65;;;31.13;;
41426;SDS011;27171;51.812;19.514;2022-11-20T06:33:14;53.42;;;30.45;;
41426;SDS011;27171;51.812;19.514;2022-11-20T06:36:15;54.65;;;31.13;;
41426;SDS011;27171;51.812;19.514;2022-11-20T06:39:18;53.53;;;31.33;;
41426;SDS011;27171;51.812;19.514;2022-11-20T06:42:19;49.85;;;29.80;;
41426;SDS011;27171;51.812;19.514;2022-11-20T06:45:20;57.10;;;31.75;;
41426;SDS011;27171;51.812;19.514;2022-11-20T06:48:22;56.85;;;30.80;;
41426;SDS011;27171;51.812;19.514;2022-11-20T06:51:24;58.83;;;31.98;;
41426;SDS011;27171;51.812;19.514;2022-11-20T06:54:25;52.13;;;30.95;;
41426;SDS011;27171;51.812;19.514;2022-11-20T06:57:26;56.42;;;31.67;;
41426;SDS011;27171;51.812;19.514;2022-11-20T07:00:27;59.67;;;35.00;;
41426;SDS011;27171;51.812;19.514;2022-11-20T07:03:28;55.10;;;31.00;;
41426;SDS011;27171;51.812;19.514;2022-11-20T07:06:30;58.95;;;33.17;;
41426;SDS011;27171;51.812;19.514;2022-11-20T07:09:31;55.58;;;33.08;;
41426;SDS011;27171;51.812;19.514;2022-11-20T07:12:33;55.08;;;32.97;;
41426;SDS011;27171;51.812;19.514;2022-11-20T07:15:34;57.35;;;32.17;;
41426;SDS011;27171;51.812;19.514;2022-11-20T07:18:35;53.40;;;30.85;;
41426;SDS011;27171;51.812;19.514;2022-11-20T07:21:36;58.25;;;34.00;;
41426;SDS011;27171;51.812;19.514;2022-11-20T07:30:40;45.35;;;26.77;;
41426;SDS011;27171;51.812;19.514;2022-11-20T07:33:41;50.72;;;29.60;;
41426;SDS011;27171;51.812;19.514;2022-11-20T07:39:43;42.58;;;24.50;;
41426;SDS011;27171;51.812;19.514;2022-11-20T07:42:47;50.78;;;30.55;;
41426;SDS011;27171;51.812;19.514;2022-11-20T07:45:56;47.08;;;29.08;;
41426;SDS011;27171;51.812;19.514;2022-11-20T07:49:00;51.63;;;30.00;;
41426;SDS011;27171;51.812;19.514;2022-11-20T07:52:01;50.83;;;32.00;;
41426;SDS011;27171;51.812;19.514;2022-11-20T07:55:02;47.75;;;29.52;;
41426;SDS011;27171;51.812;19.514;2022-11-20T07:58:04;47.17;;;29.05;;
41426;SDS011;27171;51.812;19.514;2022-11-20T08:04:07;43.10;;;24.58;;
41426;SDS011;27171;51.812;19.514;2022-11-20T08:07:08;50.40;;;29.20;;
41426;SDS011;27171;51.812;19.514;2022-11-20T08:10:11;44.97;;;29.17;;
41426;SDS011;27171;51.812;19.514;2022-11-20T08:13:13;44.70;;;29.02;;
41426;SDS011;27171;51.812;19.514;2022-11-20T08:16:14;42.90;;;26.92;;
41426;SDS011;27171;51.812;19.514;2022-11-20T08:19:16;44.22;;;27.55;;
41426;SDS011;27171;51.812;19.514;2022-11-20T08:22:18;40.92;;;25.10;;
41426;SDS011;27171;51.812;19.514;2022-11-20T08:25:19;42.55;;;25.40;;
41426;SDS011;27171;51.812;19.514;2022-11-20T08:28:21;40.47;;;26.23;;
41426;SDS011;27171;51.812;19.514;2022-11-20T08:34:23;35.53;;;22.45;;
41426;SDS011;27171;51.812;19.514;2022-11-20T08:40:25;34.42;;;20.23;;
41426;SDS011;27171;51.812;19.514;2022-11-20T08:43:26;40.38;;;23.88;;
41426;SDS011;27171;51.812;19.514;2022-11-20T08:46:30;42.88;;;26.83;;
41426;SDS011;27171;51.812;19.514;2022-11-20T08:49:33;39.72;;;25.15;;
41426;SDS011;27171;51.812;19.514;2022-11-20T08:52:35;38.58;;;25.25;;
41426;SDS011;27171;51.812;19.514;2022-11-20T08:55:36;38.75;;;24.48;;
41426;SDS011;27171;51.812;19.514;2022-11-20T08:58:37;38.15;;;24.08;;
41426;SDS011;27171;51.812;19.514;2022-11-20T09:01:39;43.67;;;27.73;;
41426;SDS011;27171;51.812;19.514;2022-11-20T09:04:40;40.80;;;26.30;;
41426;SDS011;27171;51.812;19.514;2022-11-20T09:10:42;33.45;;;21.92;;
41426;SDS011;27171;51.812;19.514;2022-11-20T09:13:43;34.00;;;22.08;;
41426;SDS011;27171;51.812;19.514;2022-11-20T09:16:45;39.72;;;23.83;;
41426;SDS011;27171;51.812;19.514;2022-11-20T09:19:46;31.80;;;21.25;;
41426;SDS011;27171;51.812;19.514;2022-11-20T09:25:48;32.80;;;20.60;;
41426;SDS011;27171;51.812;19.514;2022-11-20T09:28:49;34.80;;;22.02;;
41426;SDS011;27171;51.812;19.514;2022-11-20T09:31:50;35.35;;;21.08;;
41426;SDS011;27171;51.812;19.514;2022-11-20T09:34:51;36.22;;;22.90;;
41426;SDS011;27171;51.812;19.514;2022-11-20T09:40:57;35.85;;;21.42;;
41426;SDS011;27171;51.812;19.514;2022-11-20T09:44:12;32.05;;;18.48;;
41426;SDS011;27171;51.812;19.514;2022-11-20T09:47:26;34.90;;;20.73;;
41426;SDS011;27171;51.812;19.514;2022-11-20T09:57:10;35.13;;;21.75;;
41426;SDS011;27171;51.812;19.514;2022-11-20T10:00:14;32.55;;;20.17;;
41426;SDS011;27171;51.812;19.514;2022-11-20T10:03:21;26.73;;;18.40;;
41426;SDS011;27171;51.812;19.514;2022-11-20T10:06:41;27.95;;;18.35;;
41426;SDS011;27171;51.812;19.514;2022-11-20T10:09:58;29.48;;;18.48;;
41426;SDS011;27171;51.812;19.514;2022-11-20T10:22:52;23.02;;;14.13;;
41426;SDS011;27171;51.812;19.514;2022-11-20T10:29:34;28.95;;;18.23;;
41426;SDS011;27171;51.812;19.514;2022-11-20T10:36:01;23.27;;;16.27;;
41426;SDS011;27171;51.812;19.514;2022-11-20T10:39:16;24.83;;;15.30;;
41426;SDS011;27171;51.812;19.514;2022-11-20T10:42:43;22.95;;;14.75;;
41426;SDS011;27171;51.812;19.514;2022-11-20T11:01:15;26.48;;;17.23;;
41426;SDS011;27171;51.812;19.514;2022-11-20T11:07:36;22.98;;;15.35;;
41426;SDS011;27171;51.812;19.514;2022-11-20T11:14:07;23.40;;;15.52;;
41426;SDS011;27171;51.812;19.514;2022-11-20T11:17:18;23.23;;;15.18;;
41426;SDS011;27171;51.812;19.514;2022-11-20T11:20:21;22.10;;;15.70;;
41426;SDS011;27171;51.812;19.514;2022-11-20T11:23:45;21.20;;;15.05;;
41426;SDS011;27171;51.812;19.514;2022-11-20T11:26:52;22.67;;;14.73;;
41426;SDS011;27171;51.812;19.514;2022-11-20T11:30:12;21.45;;;14.25;;
41426;SDS011;27171;51.812;19.514;2022-11-20T11:33:22;22.02;;;15.05;;
41426;SDS011;27171;51.812;19.514;2022-11-20T11:36:25;22.90;;;15.15;;
41426;SDS011;27171;51.812;19.514;2022-11-20T11:42:29;24.45;;;16.40;;
41426;SDS011;27171;51.812;19.514;2022-11-20T11:45:30;25.77;;;17.00;;
41426;SDS011;27171;51.812;19.514;2022-11-20T11:48:32;28.05;;;17.63;;
41426;SDS011;27171;51.812;19.514;2022-11-20T11:51:38;29.23;;;19.33;;
41426;SDS011;27171;51.812;19.514;2022-11-20T11:54:59;32.67;;;22.27;;
41426;SDS011;27171;51.812;19.514;2022-11-20T12:07:53;34.28;;;24.17;;
41426;SDS011;27171;51.812;19.514;2022-11-20T12:17:27;35.05;;;25.00;;
41426;SDS011;27171;51.812;19.514;2022-11-20T12:39:43;31.52;;;22.17;;
41426;SDS011;27171;51.812;19.514;2022-11-20T12:42:55;32.42;;;23.45;;
41426;SDS011;27171;51.812;19.514;2022-11-20T12:52:38;27.40;;;19.50;;
41426;SDS011;27171;51.812;19.514;2022-11-20T12:55:53;31.65;;;23.08;;
41426;SDS011;27171;51.812;19.514;2022-11-20T12:59:32;33.25;;;24.65;;
41426;SDS011;27171;51.812;19.514;2022-11-20T13:02:42;33.10;;;24.42;;
41426;SDS011;27171;51.812;19.514;2022-11-20T13:09:16;35.22;;;24.70;;
41426;SDS011;27171;51.812;19.514;2022-11-20T13:12:24;37.53;;;25.58;;
41426;SDS011;27171;51.812;19.514;2022-11-20T13:18:39;34.35;;;24.95;;
41426;SDS011;27171;51.812;19.514;2022-11-20T13:21:42;34.05;;;24.23;;
41426;SDS011;27171;51.812;19.514;2022-11-20T13:24:50;35.90;;;25.42;;
41426;SDS011;27171;51.812;19.514;2022-11-20T13:27:51;36.83;;;25.00;;
41426;SDS011;27171;51.812;19.514;2022-11-20T13:30:54;36.97;;;26.73;;
41426;SDS011;27171;51.812;19.514;2022-11-20T13:33:56;36.17;;;26.38;;
41426;SDS011;27171;51.812;19.514;2022-11-20T13:36:59;38.45;;;26.30;;
41426;SDS011;27171;51.812;19.514;2022-11-20T13:46:38;38.13;;;26.67;;
41426;SDS011;27171;51.812;19.514;2022-11-20T13:49:41;39.22;;;26.30;;
41426;SDS011;27171;51.812;19.514;2022-11-20T13:56:00;41.88;;;28.20;;
41426;SDS011;27171;51.812;19.514;2022-11-20T14:02:35;41.15;;;26.80;;
41426;SDS011;27171;51.812;19.514;2022-11-20T14:05:37;45.28;;;29.13;;
41426;SDS011;27171;51.812;19.514;2022-11-20T14:08:50;44.33;;;29.23;;
41426;SDS011;27171;51.812;19.514;2022-11-20T14:11:51;39.67;;;28.90;;
41426;SDS011;27171;51.812;19.514;2022-11-20T14:17:53;36.40;;;23.10;;
41426;SDS011;27171;51.812;19.514;2022-11-20T14:20:55;42.20;;;26.60;;
41426;SDS011;27171;51.812;19.514;2022-11-20T14:27:11;38.25;;;25.40;;
41426;SDS011;27171;51.812;19.514;2022-11-20T14:30:21;48.75;;;30.33;;
41426;SDS011;27171;51.812;19.514;2022-11-20T14:33:25;50.25;;;31.52;;
41426;SDS011;27171;51.812;19.514;2022-11-20T14:36:27;95.15;;;49.17;;
41426;SDS011;27171;51.812;19.514;2022-11-20T14:39:35;95.10;;;54.10;;
41426;SDS011;27171;51.812;19.514;2022-11-20T14:42:38;78.32;;;46.80;;
41426;SDS011;27171;51.812;19.514;2022-11-20T14:45:45;61.50;;;36.78;;
41426;SDS011;27171;51.812;19.514;2022-11-20T14:48:50;53.30;;;32.45;;
41426;SDS011;27171;51.812;19.514;2022-11-20T14:51:59;58.88;;;35.03;;
41426;SDS011;27171;51.812;19.514;2022-11-20T14:55:02;55.95;;;34.25;;
41426;SDS011;27171;51.812;19.514;2022-11-20T14:58:22;56.95;;;35.95;;
41426;SDS011;27171;51.812;19.514;2022-11-20T15:01:29;58.17;;;37.45;;
41426;SDS011;27171;51.812;19.514;2022-11-20T15:04:32;60.50;;;36.45;;
41426;SDS011;27171;51.812;19.514;2022-11-20T15:07:35;54.10;;;35.47;;
41426;SDS011;27171;51.812;19.514;2022-11-20T15:10:38;52.22;;;32.45;;
41426;SDS011;27171;51.812;19.514;2022-11-20T15:13:45;56.45;;;34.72;;
41426;SDS011;27171;51.812;19.514;2022-11-20T15:16:46;55.47;;;33.90;;
41426;SDS011;27171;51.812;19.514;2022-11-20T15:22:48;46.72;;;28.38;;
41426;SDS011;27171;51.812;19.514;2022-11-20T15:28:50;59.15;;;32.17;;
41426;SDS011;27171;51.812;19.514;2022-11-20T15:31:52;62.95;;;36.72;;
41426;SDS011;27171;51.812;19.514;2022-11-20T15:37:54;60.83;;;34.83;;
41426;SDS011;27171;51.812;19.514;2022-11-20T15:40:55;56.17;;;35.58;;
41426;SDS011;27171;51.812;19.514;2022-11-20T15:43:56;67.55;;;40.05;;
41426;SDS011;27171;51.812;19.514;2022-11-20T15:49:58;55.10;;;31.98;;
41426;SDS011;27171;51.812;19.514;2022-11-20T15:53:00;58.08;;;33.85;;
41426;SDS011;27171;51.812;19.514;2022-11-20T15:56:01;55.10;;;34.70;;
41426;SDS011;27171;51.812;19.514;2022-11-20T15:59:03;60.67;;;36.28;;
41426;SDS011;27171;51.812;19.514;2022-11-20T16:02:07;61.95;;;37.42;;
41426;SDS011;27171;51.812;19.514;2022-11-20T16:05:11;62.72;;;36.55;;
41426;SDS011;27171;51.812;19.514;2022-11-20T16:08:14;64.43;;;38.65;;
41426;SDS011;27171;51.812;19.514;2022-11-20T16:11:15;62.55;;;38.08;;
41426;SDS011;27171;51.812;19.514;2022-11-20T16:14:17;58.17;;;35.40;;
41426;SDS011;27171;51.812;19.514;2022-11-20T16:17:18;70.80;;;39.28;;
41426;SDS011;27171;51.812;19.514;2022-11-20T16:20:19;70.55;;;39.78;;
41426;SDS011;27171;51.812;19.514;2022-11-20T16:23:21;67.05;;;39.50;;
41426;SDS011;27171;51.812;19.514;2022-11-20T16:26:22;74.40;;;40.47;;
41426;SDS011;27171;51.812;19.514;2022-11-20T16:29:23;69.88;;;39.35;;
41426;SDS011;27171;51.812;19.514;2022-11-20T16:32:24;71.25;;;41.47;;
41426;SDS011;27171;51.812;19.514;2022-11-20T16:35:29;68.25;;;39.92;;
41426;SDS011;27171;51.812;19.514;2022-11-20T16:38:31;69.40;;;39.15;;
41426;SDS011;27171;51.812;19.514;2022-11-20T16:41:33;66.35;;;38.03;;
41426;SDS011;27171;51.812;19.514;2022-11-20T16:44:35;66.60;;;37.85;;
41426;SDS011;27171;51.812;19.514;2022-11-20T16:47:36;67.88;;;39.63;;
41426;SDS011;27171;51.812;19.514;2022-11-20T16:50:39;61.83;;;36.70;;
41426;SDS011;27171;51.812;19.514;2022-11-20T16:53:45;65.05;;;37.25;;
41426;SDS011;27171;51.812;19.514;2022-11-20T16:56:47;71.80;;;40.95;;
41426;SDS011;27171;51.812;19.514;2022-11-20T16:59:48;66.47;;;39.00;;
41426;SDS011;27171;51.812;19.514;2022-11-20T17:02:49;62.15;;;36.65;;
41426;SDS011;27171;51.812;19.514;2022-11-20T17:05:50;63.35;;;35.53;;
41426;SDS011;27171;51.812;19.514;2022-11-20T17:08:52;67.78;;;37.97;;
41426;SDS011;27171;51.812;19.514;2022-11-20T17:11:54;61.78;;;35.13;;
41426;SDS011;27171;51.812;19.514;2022-11-20T17:14:56;63.85;;;35.33;;
41426;SDS011;27171;51.812;19.514;2022-11-20T17:17:57;65.28;;;36.55;;
41426;SDS011;27171;51.812;19.514;2022-11-20T17:20:59;63.60;;;35.22;;
41426;SDS011;27171;51.812;19.514;2022-11-20T17:24:05;66.90;;;38.08;;
41426;SDS011;27171;51.812;19.514;2022-11-20T17:27:08;67.53;;;38.40;;
41426;SDS011;27171;51.812;19.514;2022-11-20T17:30:09;67.82;;;38.83;;
41426;SDS011;27171;51.812;19.514;2022-11-20T17:33:11;63.65;;;36.35;;
41426;SDS011;27171;51.812;19.514;2022-11-20T17:36:13;63.88;;;34.75;;
41426;SDS011;27171;51.812;19.514;2022-11-20T17:39:16;63.70;;;38.05;;
41426;SDS011;27171;51.812;19.514;2022-11-20T17:42:17;61.20;;;34.72;;
41426;SDS011;27171;51.812;19.514;2022-11-20T17:45:18;63.00;;;36.85;;
41426;SDS011;27171;51.812;19.514;2022-11-20T17:51:21;56.00;;;32.17;;
41426;SDS011;27171;51.812;19.514;2022-11-20T17:54:23;67.07;;;37.22;;
41426;SDS011;27171;51.812;19.514;2022-11-20T17:57:25;61.10;;;35.42;;
41426;SDS011;27171;51.812;19.514;2022-11-20T18:00:26;69.10;;;38.75;;
41426;SDS011;27171;51.812;19.514;2022-11-20T18:03:27;63.30;;;37.33;;
41426;SDS011;27171;51.812;19.514;2022-11-20T18:09:29;61.53;;;32.45;;
41426;SDS011;27171;51.812;19.514;2022-11-20T18:12:30;62.90;;;35.65;;
41426;SDS011;27171;51.812;19.514;2022-11-20T18:15:32;64.30;;;34.55;;
41426;SDS011;27171;51.812;19.514;2022-11-20T18:21:33;90.25;;;41.00;;
41426;SDS011;27171;51.812;19.514;2022-11-20T18:24:35;113.60;;;51.13;;
41426;SDS011;27171;51.812;19.514;2022-11-20T18:27:36;120.18;;;54.08;;
41426;SDS011;27171;51.812;19.514;2022-11-20T18:33:38;80.55;;;42.03;;
41426;SDS011;27171;51.812;19.514;2022-11-20T18:36:39;79.68;;;40.85;;
41426;SDS011;27171;51.812;19.514;2022-11-20T18:39:41;74.97;;;40.05;;
41426;SDS011;27171;51.812;19.514;2022-11-20T18:42:42;65.95;;;38.33;;
41426;SDS011;27171;51.812;19.514;2022-11-20T18:45:43;67.03;;;37.58;;
41426;SDS011;27171;51.812;19.514;2022-11-20T18:54:46;67.72;;;34.60;;
41426;SDS011;27171;51.812;19.514;2022-11-20T18:57:48;73.15;;;38.30;;
41426;SDS011;27171;51.812;19.514;2022-11-20T19:00:49;70.68;;;38.28;;
41426;SDS011;27171;51.812;19.514;2022-11-20T19:03:50;75.10;;;39.55;;
41426;SDS011;27171;51.812;19.514;2022-11-20T19:06:51;72.75;;;40.83;;
41426;SDS011;27171;51.812;19.514;2022-11-20T19:09:53;72.25;;;40.38;;
41426;SDS011;27171;51.812;19.514;2022-11-20T19:12:54;70.25;;;38.50;;
41426;SDS011;27171;51.812;19.514;2022-11-20T19:16:00;69.97;;;39.47;;
41426;SDS011;27171;51.812;19.514;2022-11-20T19:19:03;77.75;;;41.38;;
41426;SDS011;27171;51.812;19.514;2022-11-20T19:22:06;68.47;;;39.45;;
41426;SDS011;27171;51.812;19.514;2022-11-20T19:25:07;73.32;;;40.45;;
41426;SDS011;27171;51.812;19.514;2022-11-20T19:28:08;72.07;;;40.80;;
41426;SDS011;27171;51.812;19.514;2022-11-20T19:31:10;84.78;;;45.30;;
41426;SDS011;27171;51.812;19.514;2022-11-20T19:34:13;84.65;;;44.92;;
41426;SDS011;27171;51.812;19.514;2022-11-20T19:37:15;79.97;;;44.03;;
41426;SDS011;27171;51.812;19.514;2022-11-20T19:43:17;75.38;;;40.25;;
41426;SDS011;27171;51.812;19.514;2022-11-20T19:46:18;86.25;;;44.58;;
41426;SDS011;27171;51.812;19.514;2022-11-20T19:49:19;83.47;;;45.20;;
41426;SDS011;27171;51.812;19.514;2022-11-20T19:52:20;84.20;;;45.42;;
41426;SDS011;27171;51.812;19.514;2022-11-20T20:01:25;70.47;;;36.15;;
41426;SDS011;27171;51.812;19.514;2022-11-20T20:04:27;74.43;;;40.42;;
41426;SDS011;27171;51.812;19.514;2022-11-20T20:07:28;78.65;;;44.78;;
41426;SDS011;27171;51.812;19.514;2022-11-20T20:10:29;78.75;;;42.25;;
41426;SDS011;27171;51.812;19.514;2022-11-20T20:13:30;85.05;;;44.47;;
41426;SDS011;27171;51.812;19.514;2022-11-20T20:16:32;78.35;;;42.83;;
41426;SDS011;27171;51.812;19.514;2022-11-20T20:19:38;73.38;;;41.88;;
41426;SDS011;27171;51.812;19.514;2022-11-20T20:22:39;74.57;;;42.08;;
41426;SDS011;27171;51.812;19.514;2022-11-20T20:25:40;78.78;;;41.88;;
41426;SDS011;27171;51.812;19.514;2022-11-20T20:28:41;72.43;;;39.75;;
41426;SDS011;27171;51.812;19.514;2022-11-20T20:31:43;73.95;;;40.45;;
41426;SDS011;27171;51.812;19.514;2022-11-20T20:34:45;75.70;;;41.65;;
41426;SDS011;27171;51.812;19.514;2022-11-20T20:40:47;64.60;;;35.78;;
41426;SDS011;27171;51.812;19.514;2022-11-20T20:43:48;68.63;;;38.65;;